Time;durP1;ratioP1;P1;durP2;ratioP2;P2;SDS_P1;SDS_P2;PMS_P1;PMS_P2;Temp;Humidity;BMP_temperature;BMP_pressure;BME280_temperature;BME280_humidity;BME280_pressure;Samples;Min_cycle;Max_cycle;Signal;HPM_P1;HPM_P2
2023/09/24 00:01:13;;;;;;;2.65;2.20;;;12.80;99.90;;;;;;5035448;28;20072;-80
2023/09/24 00:03:39;;;;;;;3.05;2.25;;;12.90;99.90;;;;;;5035555;28;20463;-80
2023/09/24 00:06:08;;;;;;;3.70;2.35;;;12.90;99.90;;;;;;5033929;28;20045;-79
2023/09/24 00:08:34;;;;;;;3.60;2.42;;;12.90;99.90;;;;;;5035256;28;20053;-81
2023/09/24 00:11:00;;;;;;;3.03;1.80;;;12.90;99.90;;;;;;5035117;28;20099;-79
2023/09/24 00:13:26;;;;;;;4.70;2.53;;;12.90;99.90;;;;;;5034256;28;20120;-80
2023/09/24 00:15:52;;;;;;;7.38;2.53;;;12.90;99.90;;;;;;5035190;28;20550;-81
2023/09/24 00:18:19;;;;;;;2.45;2.15;;;12.90;99.90;;;;;;5034259;28;20049;-80
2023/09/24 00:20:45;;;;;;;4.80;2.47;;;12.80;99.90;;;;;;5035258;28;20080;-80
2023/09/24 00:23:11;;;;;;;4.68;2.53;;;12.70;99.90;;;;;;5035034;28;20053;-80
2023/09/24 00:25:40;;;;;;;4.15;2.20;;;12.70;99.90;;;;;;5034814;28;20447;-81
2023/09/24 00:28:07;;;;;;;5.30;2.10;;;12.60;99.90;;;;;;5034852;28;20049;-81
2023/09/24 00:30:34;;;;;;;4.43;2.22;;;12.60;99.90;;;;;;5034208;28;20114;-81
2023/09/24 00:33:00;;;;;;;3.25;2.05;;;12.50;99.90;;;;;;5035008;28;20045;-80
2023/09/24 00:35:26;;;;;;;4.00;2.75;;;12.50;99.90;;;;;;5035036;28;20061;-81
2023/09/24 00:37:52;;;;;;;4.07;2.15;;;12.40;99.90;;;;;;5039142;28;20053;-82
2023/09/24 00:40:18;;;;;;;4.22;2.40;;;12.30;99.90;;;;;;5040500;28;20045;-81
2023/09/24 00:42:45;;;;;;;3.20;2.38;;;12.30;99.90;;;;;;5038933;28;20397;-81
2023/09/24 00:45:11;;;;;;;2.95;2.50;;;12.20;99.90;;;;;;5034528;28;20049;-81
2023/09/24 00:47:43;;;;;;;5.45;2.60;;;12.10;99.90;;;;;;5034646;28;20049;-82
2023/09/24 00:50:10;;;;;;;4.25;2.65;;;12.10;99.90;;;;;;5034891;28;20363;-81
2023/09/24 00:52:36;;;;;;;3.30;2.47;;;12.10;99.90;;;;;;5034325;28;20045;-81
2023/09/24 00:55:04;;;;;;;4.22;2.35;;;12.00;99.90;;;;;;5034296;28;20183;-81
2023/09/24 00:57:31;;;;;;;3.40;2.45;;;12.00;99.90;;;;;;5034816;28;20179;-80
2023/09/24 00:59:58;;;;;;;9.88;3.15;;;12.00;99.90;;;;;;5034658;28;20088;-82
2023/09/24 01:02:25;;;;;;;4.80;2.65;;;12.00;99.90;;;;;;5034343;28;20045;-80
2023/09/24 01:04:53;;;;;;;3.53;2.38;;;11.90;99.90;;;;;;5034129;28;20091;-80
2023/09/24 01:07:23;;;;;;;3.17;2.10;;;11.90;99.90;;;;;;5034144;28;20124;-81
2023/09/24 01:09:49;;;;;;;3.63;2.00;;;11.80;99.90;;;;;;5034019;28;20041;-82
2023/09/24 01:12:22;;;;;;;3.15;2.85;;;11.90;99.90;;;;;;5034088;28;20141;-79
2023/09/24 01:14:48;;;;;;;5.40;2.50;;;11.80;99.90;;;;;;5033125;28;20064;-81
2023/09/24 01:17:14;;;;;;;4.55;2.72;;;11.80;99.90;;;;;;5033533;28;20057;-82
2023/09/24 01:19:40;;;;;;;3.47;2.38;;;11.80;99.90;;;;;;5034284;28;20053;-82
2023/09/24 01:22:07;;;;;;;3.83;2.35;;;11.70;99.90;;;;;;5033810;28;20042;-82
2023/09/24 01:24:33;;;;;;;5.85;2.72;;;11.70;99.90;;;;;;5033739;28;20049;-81
2023/09/24 01:26:59;;;;;;;4.20;2.55;;;11.60;99.90;;;;;;5033747;28;20068;-81
2023/09/24 01:29:26;;;;;;;3.42;2.42;;;11.60;99.90;;;;;;5033691;28;20412;-78
2023/09/24 01:31:52;;;;;;;3.47;2.92;;;11.50;99.90;;;;;;5034154;28;20053;-81
2023/09/24 01:34:19;;;;;;;4.35;2.80;;;11.50;99.90;;;;;;5033183;28;20075;-79
2023/09/24 01:36:45;;;;;;;4.60;2.78;;;11.50;99.90;;;;;;5033637;28;20125;-81
2023/09/24 01:39:15;;;;;;;3.17;2.70;;;11.50;99.90;;;;;;5032249;28;20059;-80
2023/09/24 01:41:41;;;;;;;4.72;2.95;;;11.40;99.90;;;;;;5033573;28;20042;-79
2023/09/24 01:44:07;;;;;;;5.55;3.15;;;11.40;99.90;;;;;;5033382;28;20045;-81
2023/09/24 01:46:33;;;;;;;3.53;2.60;;;11.40;99.90;;;;;;5033528;28;20046;-81
2023/09/24 01:48:59;;;;;;;3.33;3.03;;;11.40;99.90;;;;;;5015516;28;20050;-81
2023/09/24 01:51:25;;;;;;;4.43;2.85;;;11.40;99.90;;;;;;5033521;28;20067;-81
2023/09/24 01:53:51;;;;;;;4.75;3.22;;;11.40;99.90;;;;;;5033316;28;20064;-79
2023/09/24 01:56:18;;;;;;;7.05;3.70;;;11.30;99.90;;;;;;5033458;28;20131;-78
2023/09/24 01:58:45;;;;;;;4.93;3.20;;;11.30;99.90;;;;;;5033219;28;20060;-81
2023/09/24 02:01:11;;;;;;;5.20;3.30;;;11.00;99.90;;;;;;5033557;28;20102;-80
2023/09/24 02:03:37;;;;;;;8.50;4.68;;;11.20;99.90;;;;;;5033139;28;20049;-81
2023/09/24 02:06:05;;;;;;;4.93;4.43;;;11.20;99.90;;;;;;5031741;28;20367;-81
2023/09/24 02:08:31;;;;;;;4.20;3.60;;;11.20;99.90;;;;;;5032900;28;20056;-81
2023/09/24 02:10:57;;;;;;;3.40;2.67;;;11.20;99.90;;;;;;5033367;28;20041;-81
2023/09/24 02:13:23;;;;;;;5.63;4.05;;;11.20;99.90;;;;;;5032904;28;20045;-80
2023/09/24 02:15:49;;;;;;;4.57;3.20;;;11.10;99.90;;;;;;5033101;28;20124;-81
2023/09/24 02:18:15;;;;;;;7.00;4.75;;;11.10;99.90;;;;;;5032859;28;20049;-80
2023/09/24 02:20:48;;;;;;;8.20;5.00;;;11.10;99.90;;;;;;5032425;28;20129;-80
2023/09/24 02:23:14;;;;;;;6.03;3.63;;;11.10;99.90;;;;;;5032767;28;20065;-82
2023/09/24 02:25:40;;;;;;;4.95;4.45;;;11.00;99.90;;;;;;5032729;28;20038;-80
2023/09/24 02:28:05;;;;;;;5.10;4.60;;;11.00;99.90;;;;;;5033012;28;20440;-80
2023/09/24 02:30:32;;;;;;;5.47;4.85;;;11.00;99.90;;;;;;5033236;28;20045;-81
2023/09/24 02:32:59;;;;;;;4.85;4.40;;;11.00;99.90;;;;;;5032511;28;20144;-81
2023/09/24 02:35:25;;;;;;;7.25;5.18;;;10.90;99.90;;;;;;5032910;28;20124;-81
2023/09/24 02:37:52;;;;;;;6.22;5.35;;;10.90;99.90;;;;;;5032723;28;20056;-81
2023/09/24 02:40:26;;;;;;;7.00;5.53;;;10.90;99.90;;;;;;5032660;28;20049;-81
2023/09/24 02:42:57;;;;;;;5.03;4.40;;;10.90;99.90;;;;;;5031628;28;20499;-80
2023/09/24 02:45:24;;;;;;;5.63;4.07;;;10.90;99.90;;;;;;5032540;28;20049;-80
2023/09/24 02:47:50;;;;;;;5.22;4.50;;;10.80;99.90;;;;;;5032529;28;20049;-81
2023/09/24 02:50:24;;;;;;;5.30;3.50;;;10.80;99.90;;;;;;5032787;28;20042;-81
2023/09/24 02:52:58;;;;;;;4.93;4.40;;;10.80;99.90;;;;;;5031708;28;20045;-82
2023/09/24 02:55:26;;;;;;;6.43;5.82;;;10.80;99.90;;;;;;5032465;28;20103;-79
2023/09/24 02:57:52;;;;;;;5.93;4.78;;;10.80;99.90;;;;;;5031521;28;20118;-81
2023/09/24 03:00:26;;;;;;;7.10;5.22;;;10.70;99.90;;;;;;5032791;28;20460;-81
2023/09/24 03:02:53;;;;;;;5.53;4.00;;;10.70;99.90;;;;;;5032323;28;20046;-81
2023/09/24 03:05:20;;;;;;;4.90;4.20;;;10.80;99.90;;;;;;5032341;28;20045;-81
2023/09/24 03:07:50;;;;;;;5.40;4.25;;;10.70;99.90;;;;;;5032298;28;20091;-80
2023/09/24 03:10:16;;;;;;;4.53;3.65;;;10.70;99.90;;;;;;5032362;28;20526;-81
2023/09/24 03:12:43;;;;;;;5.93;4.25;;;10.70;99.90;;;;;;5032081;28;20091;-80
2023/09/24 03:15:12;;;;;;;5.38;4.30;;;10.70;99.90;;;;;;5032324;28;20064;-81
2023/09/24 03:17:39;;;;;;;7.68;4.63;;;10.70;99.90;;;;;;5032265;28;20056;-81
2023/09/24 03:20:17;;;;;;;6.97;4.10;;;10.60;99.90;;;;;;5031783;28;20079;-81
2023/09/24 03:22:52;;;;;;;16.70;6.38;;;10.70;99.90;;;;;;5031086;28;20049;-81
2023/09/24 03:25:23;;;;;;;5.63;4.65;;;10.70;99.90;;;;;;5032088;28;20037;-79
2023/09/24 03:27:51;;;;;;;19.80;7.15;;;10.70;99.90;;;;;;5032002;28;20049;-81
2023/09/24 03:30:18;;;;;;;11.80;5.25;;;10.70;99.90;;;;;;5032676;28;20115;-80
2023/09/24 03:32:45;;;;;;;14.93;6.63;;;10.80;99.90;;;;;;5031833;28;20124;-81
2023/09/24 03:35:11;;;;;;;17.85;6.68;;;10.80;99.90;;;;;;5033166;28;20076;-81
2023/09/24 03:37:43;;;;;;;5.72;4.60;;;10.70;99.90;;;;;;5035904;28;20462;-81
2023/09/24 03:40:11;;;;;;;6.75;5.35;;;10.80;99.90;;;;;;5035932;28;20049;-81
2023/09/24 03:42:40;;;;;;;9.63;5.32;;;10.80;99.90;;;;;;5035771;28;20049;-82
2023/09/24 03:45:08;;;;;;;8.25;6.65;;;10.80;99.90;;;;;;5035544;28;20045;-81
2023/09/24 03:47:34;;;;;;;8.45;6.60;;;10.80;99.90;;;;;;5035055;28;20120;-80
2023/09/24 03:50:01;;;;;;;6.50;5.80;;;10.80;99.90;;;;;;5036218;28;20493;-79
2023/09/24 03:52:27;;;;;;;5.45;4.90;;;10.80;99.90;;;;;;5017989;28;20049;-81
2023/09/24 03:54:53;;;;;;;7.57;5.90;;;10.80;99.90;;;;;;5035704;28;20033;-81
2023/09/24 03:57:18;;;;;;;7.20;5.60;;;10.80;99.90;;;;;;5035533;28;20052;-81
2023/09/24 03:59:44;;;;;;;6.50;5.20;;;10.80;99.90;;;;;;5035678;28;20060;-81
2023/09/24 04:02:09;;;;;;;6.15;5.55;;;10.80;99.90;;;;;;5035969;28;20077;-81
2023/09/24 04:04:36;;;;;;;9.10;4.97;;;10.80;99.90;;;;;;5035388;28;20482;-81
2023/09/24 04:07:03;;;;;;;7.28;5.72;;;10.80;99.90;;;;;;5035459;28;20057;-80
2023/09/24 04:09:32;;;;;;;6.10;5.43;;;10.70;99.90;;;;;;5035336;28;20053;-81
2023/09/24 04:12:02;;;;;;;6.60;5.95;;;10.80;99.90;;;;;;5034114;28;20052;-81
2023/09/24 04:14:28;;;;;;;6.53;5.72;;;10.80;99.90;;;;;;5034445;28;20050;-80
2023/09/24 04:16:55;;;;;;;6.05;5.45;;;10.70;99.90;;;;;;5034142;28;20053;-81
2023/09/24 04:19:21;;;;;;;7.10;6.22;;;10.70;99.90;;;;;;5035228;28;20085;-80
2023/09/24 04:21:46;;;;;;;6.05;5.45;;;10.70;99.90;;;;;;5033903;28;20057;-80
2023/09/24 04:24:13;;;;;;;7.85;5.38;;;10.70;99.90;;;;;;5034147;28;20046;-81
2023/09/24 04:26:40;;;;;;;6.57;4.72;;;10.70;99.90;;;;;;5033982;28;20448;-81
2023/09/24 04:29:05;;;;;;;6.35;5.75;;;10.70;99.90;;;;;;5034976;28;20057;-80
2023/09/24 04:31:31;;;;;;;5.93;5.32;;;10.70;99.90;;;;;;5035422;28;20048;-79
2023/09/24 04:33:57;;;;;;;6.45;5.07;;;10.70;99.90;;;;;;5035174;28;20489;-79
2023/09/24 04:36:23;;;;;;;6.10;5.47;;;10.60;99.90;;;;;;5034868;28;20053;-80
2023/09/24 04:38:49;;;;;;;6.30;5.70;;;10.50;99.90;;;;;;5034733;28;20501;-78
2023/09/24 04:41:17;;;;;;;8.73;5.53;;;10.50;99.90;;;;;;5034581;28;20057;-80
2023/09/24 04:43:43;;;;;;;7.50;5.78;;;10.50;99.90;;;;;;5033771;28;20553;-78
2023/09/24 04:46:09;;;;;;;7.65;5.80;;;10.50;99.90;;;;;;5034500;28;20124;-80
2023/09/24 04:48:35;;;;;;;6.13;5.05;;;10.50;99.90;;;;;;5033944;28;20053;-80
2023/09/24 04:51:01;;;;;;;7.35;6.35;;;10.50;99.90;;;;;;5034880;28;20049;-80
2023/09/24 04:53:27;;;;;;;7.60;6.28;;;10.50;99.90;;;;;;5034381;28;20099;-81
2023/09/24 04:55:54;;;;;;;7.82;6.30;;;10.50;99.90;;;;;;5034446;28;20056;-80
2023/09/24 04:58:20;;;;;;;8.27;6.47;;;10.40;99.90;;;;;;5034345;28;20450;-81
2023/09/24 05:00:45;;;;;;;6.28;5.68;;;10.50;99.90;;;;;;5034410;28;20092;-80
2023/09/24 05:03:11;;;;;;;8.63;5.95;;;10.50;99.90;;;;;;5033883;28;20045;-81
2023/09/24 05:05:42;;;;;;;8.70;6.03;;;10.40;99.90;;;;;;5034850;28;20041;-79
2023/09/24 05:08:08;;;;;;;7.13;6.00;;;10.40;99.90;;;;;;5034267;28;20049;-81
2023/09/24 05:10:36;;;;;;;9.07;6.72;;;10.50;99.90;;;;;;5034724;28;20049;-81
2023/09/24 05:13:04;;;;;;;8.90;7.47;;;10.50;99.90;;;;;;5033353;28;20056;-81
2023/09/24 05:15:30;;;;;;;8.00;6.72;;;10.60;99.90;;;;;;5034033;28;20042;-78
2023/09/24 05:17:56;;;;;;;8.18;6.10;;;10.50;99.90;;;;;;5034122;28;20042;-82
2023/09/24 05:20:22;;;;;;;8.45;6.35;;;10.50;99.90;;;;;;5034281;28;20379;-81
2023/09/24 05:22:48;;;;;;;9.65;6.72;;;10.50;99.90;;;;;;5033756;28;20484;-79
2023/09/24 05:25:13;;;;;;;9.95;6.85;;;10.50;99.90;;;;;;5034185;28;20045;-80
2023/09/24 05:27:39;;;;;;;9.00;6.93;;;10.50;99.90;;;;;;5033874;28;20046;-82
2023/09/24 05:30:07;;;;;;;8.32;6.28;;;10.50;99.90;;;;;;5033774;28;20053;-80
2023/09/24 05:32:33;;;;;;;8.48;6.60;;;10.60;99.90;;;;;;5033776;28;20110;-79
2023/09/24 05:34:59;;;;;;;7.88;7.13;;;10.60;99.90;;;;;;5032578;28;20062;-81
2023/09/24 05:37:25;;;;;;;9.00;7.38;;;10.60;99.90;;;;;;5033279;28;20049;-81
2023/09/24 05:39:51;;;;;;;11.50;6.38;;;10.60;99.90;;;;;;5033447;28;20122;-81
2023/09/24 05:42:17;;;;;;;12.55;7.13;;;10.50;99.90;;;;;;5033285;28;20046;-80
2023/09/24 05:44:43;;;;;;;8.80;7.78;;;10.60;99.90;;;;;;5033416;28;20049;-80
2023/09/24 05:47:10;;;;;;;8.23;6.32;;;10.60;99.90;;;;;;5033490;28;20045;-80
2023/09/24 05:49:36;;;;;;;6.32;5.72;;;10.60;99.90;;;;;;5032771;28;20037;-80
2023/09/24 05:52:03;;;;;;;10.57;7.30;;;10.60;99.90;;;;;;5033700;28;20115;-79
2023/09/24 05:54:28;;;;;;;9.88;6.78;;;10.70;99.90;;;;;;5033365;28;20081;-80
2023/09/24 05:56:54;;;;;;;9.40;7.05;;;10.70;99.90;;;;;;5033375;28;20057;-80
2023/09/24 05:59:20;;;;;;;9.15;7.15;;;10.70;99.90;;;;;;5032794;28;20093;-79
2023/09/24 06:01:46;;;;;;;9.45;7.22;;;10.70;99.90;;;;;;5033127;28;20045;-81
2023/09/24 06:04:11;;;;;;;7.10;6.40;;;10.70;99.90;;;;;;5033099;28;20104;-79
2023/09/24 06:06:37;;;;;;;9.85;7.18;;;10.70;99.90;;;;;;5031803;28;20085;-80
2023/09/24 06:09:09;;;;;;;8.70;6.60;;;10.70;99.90;;;;;;5032012;28;20133;-79
2023/09/24 06:11:37;;;;;;;9.57;7.32;;;10.80;99.90;;;;;;5033153;28;20057;-80
2023/09/24 06:14:08;;;;;;;11.55;6.78;;;10.80;99.90;;;;;;5032022;28;20430;-80
2023/09/24 06:16:37;;;;;;;7.85;6.55;;;10.80;99.90;;;;;;5033245;28;20045;-81
2023/09/24 06:19:03;;;;;;;9.50;7.13;;;10.90;99.90;;;;;;5032112;28;20077;-81
2023/09/24 06:21:30;;;;;;;8.43;6.80;;;10.90;99.90;;;;;;5033095;28;20130;-79
2023/09/24 06:23:56;;;;;;;8.57;6.32;;;10.90;99.90;;;;;;5033181;28;20064;-79
2023/09/24 06:26:22;;;;;;;10.35;7.50;;;10.90;99.90;;;;;;5032598;28;20454;-81
2023/09/24 06:28:47;;;;;;;9.50;6.97;;;10.90;99.90;;;;;;5032565;28;20049;-80
2023/09/24 06:31:13;;;;;;;9.32;7.22;;;10.90;99.90;;;;;;5032377;28;20045;-79
2023/09/24 06:33:39;;;;;;;12.38;7.72;;;11.00;99.90;;;;;;5031362;28;20068;-81
2023/09/24 06:36:05;;;;;;;10.15;7.53;;;11.00;99.90;;;;;;5032627;28;20055;-81
2023/09/24 06:38:32;;;;;;;11.57;7.32;;;11.10;99.90;;;;;;5032496;28;20042;-78
2023/09/24 06:41:04;;;;;;;11.25;8.25;;;11.10;99.90;;;;;;5032673;28;20128;-80
2023/09/24 06:43:31;;;;;;;10.47;7.13;;;11.20;99.90;;;;;;5032739;28;20053;-78
2023/09/24 06:45:57;;;;;;;9.02;7.82;;;11.30;99.90;;;;;;5032285;28;20125;-78
2023/09/24 06:48:23;;;;;;;11.75;8.40;;;11.30;99.90;;;;;;5032526;28;20099;-80
2023/09/24 06:50:50;;;;;;;10.90;7.53;;;11.40;99.90;;;;;;5032476;28;20536;-81
2023/09/24 06:53:16;;;;;;;9.05;7.30;;;11.50;99.90;;;;;;5030982;28;20084;-79
2023/09/24 06:55:42;;;;;;;10.35;7.93;;;11.70;99.90;;;;;;5014870;28;20044;-78
2023/09/24 06:58:08;;;;;;;12.85;7.03;;;11.70;99.90;;;;;;5031298;28;20053;-80
2023/09/24 07:00:34;;;;;;;9.70;7.30;;;11.80;99.90;;;;;;5032240;28;20080;-81
2023/09/24 07:03:00;;;;;;;11.77;7.28;;;11.90;99.90;;;;;;5032312;28;20064;-81
2023/09/24 07:05:26;;;;;;;8.73;6.93;;;11.90;99.90;;;;;;5032202;28;20042;-80
2023/09/24 07:07:52;;;;;;;10.63;7.15;;;12.10;99.90;;;;;;5032209;28;20057;-79
2023/09/24 07:10:20;;;;;;;10.57;7.63;;;12.10;99.90;;;;;;5033253;28;20045;-81
2023/09/24 07:12:46;;;;;;;12.07;7.35;;;12.20;99.90;;;;;;5036304;28;20042;-81
2023/09/24 07:15:12;;;;;;;9.02;6.88;;;12.30;99.90;;;;;;5036517;28;20077;-80
2023/09/24 07:17:38;;;;;;;12.32;8.13;;;12.40;99.90;;;;;;5036567;28;20485;-81
2023/09/24 07:20:04;;;;;;;14.07;7.40;;;12.50;99.90;;;;;;5036227;28;20056;-80
2023/09/24 07:22:30;;;;;;;10.32;6.85;;;12.60;99.90;;;;;;5036387;28;20045;-79
2023/09/24 07:24:56;;;;;;;10.93;7.55;;;12.70;99.90;;;;;;5036035;28;20459;-80
2023/09/24 07:27:24;;;;;;;10.73;6.72;;;12.80;99.90;;;;;;5035168;28;20142;-80
2023/09/24 07:29:50;;;;;;;13.00;6.90;;;12.80;99.90;;;;;;5035955;28;20049;-81
2023/09/24 07:32:15;;;;;;;7.32;6.32;;;12.90;99.90;;;;;;5036502;28;20052;-79
2023/09/24 07:34:42;;;;;;;13.23;7.38;;;13.00;99.90;;;;;;5034734;28;20083;-79
2023/09/24 07:37:08;;;;;;;9.55;6.50;;;13.20;99.90;;;;;;5036328;28;20076;-80
2023/09/24 07:39:37;;;;;;;9.68;7.22;;;13.40;99.90;;;;;;5036326;28;20045;-82
2023/09/24 07:42:02;;;;;;;7.50;5.95;;;14.00;99.90;;;;;;5035178;28;20105;-82
2023/09/24 07:44:28;;;;;;;9.27;5.65;;;15.10;99.90;;;;;;5035767;28;20064;-81
2023/09/24 07:46:54;;;;;;;8.65;5.53;;;16.30;99.90;;;;;;5036236;28;20088;-82
2023/09/24 07:49:20;;;;;;;10.80;5.70;;;17.20;99.90;;;;;;5035844;28;20172;-80
2023/09/24 07:51:46;;;;;;;7.07;5.50;;;18.10;99.90;;;;;;5035779;28;20085;-81
2023/09/24 07:54:13;;;;;;;7.40;4.80;;;18.60;99.90;;;;;;5035613;28;20045;-81
2023/09/24 07:56:41;;;;;;;9.80;5.65;;;19.50;99.90;;;;;;5035723;28;20095;-79
2023/09/24 07:59:07;;;;;;;8.02;4.82;;;20.10;99.90;;;;;;5035617;28;20064;-82
2023/09/24 08:01:33;;;;;;;7.65;5.43;;;20.90;99.90;;;;;;5036117;28;20065;-81
2023/09/24 08:03:59;;;;;;;7.43;4.85;;;20.70;99.90;;;;;;5035498;28;20475;-82
2023/09/24 08:06:28;;;;;;;5.57;4.30;;;20.80;99.90;;;;;;5035397;28;20045;-83
2023/09/24 08:08:54;;;;;;;7.13;4.28;;;21.40;99.90;;;;;;5035766;28;20088;-82
2023/09/24 08:11:20;;;;;;;7.38;4.30;;;21.50;99.90;;;;;;5035209;28;20129;-80
2023/09/24 08:13:46;;;;;;;8.05;5.00;;;21.80;99.90;;;;;;5035416;28;20080;-83
2023/09/24 08:16:13;;;;;;;5.20;4.30;;;22.10;99.90;;;;;;5035066;28;20042;-80
2023/09/24 08:18:38;;;;;;;7.53;4.20;;;22.20;99.90;;;;;;5034920;28;20052;-81
2023/09/24 08:21:04;;;;;;;5.35;4.53;;;22.10;99.90;;;;;;5035117;28;20085;-81
2023/09/24 08:23:31;;;;;;;7.40;4.97;;;22.70;99.90;;;;;;5033902;28;20041;-77
2023/09/24 08:25:57;;;;;;;4.10;3.65;;;22.70;99.90;;;;;;5034633;28;20041;-77
2023/09/24 08:28:23;;;;;;;6.43;3.70;;;22.60;99.90;;;;;;5035183;28;20053;-78
2023/09/24 08:30:48;;;;;;;5.53;4.22;;;22.60;99.90;;;;;;5033580;28;20052;-77
2023/09/24 08:33:14;;;;;;;6.47;3.58;;;22.90;99.90;;;;;;5033159;28;20046;-78
2023/09/24 08:35:40;;;;;;;5.97;4.00;;;23.00;99.90;;;;;;5034482;28;20116;-78
2023/09/24 08:38:06;;;;;;;5.82;3.58;;;23.30;99.90;;;;;;5034353;28;20049;-76
2023/09/24 08:40:32;;;;;;;6.30;3.63;;;23.50;99.90;;;;;;5035051;28;20073;-80
2023/09/24 08:42:58;;;;;;;5.28;3.28;;;23.20;99.30;;;;;;5035093;28;20443;-82
2023/09/24 08:45:26;;;;;;;8.52;3.65;;;23.50;99.10;;;;;;5033960;28;20108;-82
2023/09/24 08:47:52;;;;;;;4.32;2.90;;;23.40;98.60;;;;;;5035147;28;20053;-81
2023/09/24 08:50:19;;;;;;;5.57;3.30;;;23.60;98.40;;;;;;5033361;28;20503;-81
2023/09/24 08:52:45;;;;;;;5.07;2.95;;;24.10;97.70;;;;;;5034598;28;20067;-82
2023/09/24 08:55:12;;;;;;;4.70;3.40;;;23.90;95.90;;;;;;5034331;28;20029;-82
2023/09/24 08:57:46;;;;;;;7.00;3.17;;;24.20;96.90;;;;;;5033260;28;20044;-82
2023/09/24 09:00:14;;;;;;;7.90;3.42;;;24.20;96.40;;;;;;5034333;28;20053;-79
2023/09/24 09:02:43;;;;;;;5.32;3.35;;;24.40;96.90;;;;;;5034386;28;20043;-83
2023/09/24 09:05:23;;;;;;;7.32;3.55;;;24.10;96.20;;;;;;5032978;28;20379;-81
2023/09/24 09:07:56;;;;;;;3.47;2.78;;;24.40;93.90;;;;;;5034063;28;20496;-83
2023/09/24 09:10:40;;;;;;;6.43;3.55;;;24.60;95.30;;;;;;5034363;28;20049;-81
2023/09/24 09:13:14;;;;;;;5.13;3.10;;;24.60;93.20;;;;;;5033274;28;20482;-82
2023/09/24 09:15:42;;;;;;;4.85;3.20;;;24.10;94.30;;;;;;5033806;28;20065;-83
2023/09/24 09:18:27;;;;;;;6.65;3.08;;;24.20;94.10;;;;;;5032863;28;20053;-83
2023/09/24 09:20:59;;;;;;;4.22;2.50;;;24.30;92.90;;;;;;5034671;28;20045;-74
2023/09/24 09:23:36;;;;;;;3.92;2.90;;;24.10;94.80;;;;;;5034287;28;20052;-75
2023/09/24 09:26:03;;;;;;;6.28;2.78;;;24.60;94.00;;;;;;5033766;28;20542;-75
2023/09/24 09:28:31;;;;;;;4.05;2.88;;;25.10;94.90;;;;;;5034024;28;20053;-74
2023/09/24 09:31:07;;;;;;;5.30;2.80;;;25.20;94.40;;;;;;5032869;28;20041;-74
2023/09/24 09:33:39;;;;;;;5.60;3.05;;;25.10;92.20;;;;;;5033509;28;20099;-74
2023/09/24 09:36:20;;;;;;;3.72;2.90;;;25.30;93.50;;;;;;5033130;28;20502;-75
2023/09/24 09:38:46;;;;;;;3.40;2.78;;;25.00;91.40;;;;;;5033980;28;20121;-74
2023/09/24 09:41:13;;;;;;;3.53;2.47;;;25.20;93.20;;;;;;5035092;28;20071;-74
2023/09/24 09:43:40;;;;;;;5.85;2.50;;;25.30;93.40;;;;;;5034977;28;20060;-75
2023/09/24 09:46:10;;;;;;;5.07;2.83;;;25.20;93.10;;;;;;5033513;28;20095;-81
2023/09/24 09:48:39;;;;;;;4.57;2.28;;;24.90;91.90;;;;;;5033492;28;20095;-82
2023/09/24 09:51:07;;;;;;;5.28;2.65;;;25.30;93.00;;;;;;5032965;28;20049;-82
2023/09/24 09:53:37;;;;;;;4.10;2.15;;;24.90;92.30;;;;;;5033807;28;20118;-80
2023/09/24 09:56:08;;;;;;;5.30;2.42;;;25.10;92.80;;;;;;5032192;28;20041;-82
2023/09/24 09:58:36;;;;;;;6.13;2.67;;;25.60;91.50;;;;;;5032514;28;20092;-82
2023/09/24 10:01:03;;;;;;;5.75;2.90;;;25.70;91.70;;;;;;5033278;28;20103;-81
2023/09/24 10:03:32;;;;;;;4.28;2.63;;;25.40;91.40;;;;;;5033165;28;20116;-83
2023/09/24 10:05:59;;;;;;;5.35;2.47;;;25.80;92.60;;;;;;5032966;28;20473;-84
2023/09/24 10:08:45;;;;;;;3.15;2.20;;;25.50;91.00;;;;;;5033157;28;20057;-81
2023/09/24 10:11:33;;;;;;;4.60;2.88;;;25.50;90.00;;;;;;5033088;28;20045;-83
2023/09/24 10:14:04;;;;;;;4.28;1.98;;;26.30;91.90;;;;;;5022349;28;20057;-79
2023/09/24 10:16:38;;;;;;;5.25;2.10;;;26.80;91.80;;;;;;5033690;28;20204;-80
2023/09/24 10:19:06;;;;;;;3.72;2.20;;;26.70;91.50;;;;;;5033054;28;20076;-80
2023/09/24 10:21:35;;;;;;;4.75;2.30;;;26.20;88.00;;;;;;5031792;28;20119;-81
2023/09/24 10:24:13;;;;;;;3.70;2.03;;;26.20;90.40;;;;;;5032829;28;20047;-81
2023/09/24 10:26:48;;;;;;;3.67;2.10;;;26.60;90.30;;;;;;5032670;28;20180;-82
2023/09/24 10:29:18;;;;;;;6.35;3.17;;;26.40;87.90;;;;;;5032526;28;20098;-79
2023/09/24 10:32:06;;;;;;;4.15;2.25;;;26.40;88.10;;;;;;5032744;28;20140;-80
2023/09/24 10:34:53;;;;;;;2.88;2.13;;;25.90;86.90;;;;;;5032492;28;20050;-81
2023/09/24 10:37:20;;;;;;;5.30;2.05;;;25.30;89.70;;;;;;5032590;28;20049;-81
2023/09/24 10:40:19;;;;;;;4.25;2.55;;;24.50;90.60;;;;;;5031721;28;20508;-82
2023/09/24 10:42:45;;;;;;;6.15;2.30;;;23.60;90.50;;;;;;5032614;28;20465;-83
2023/09/24 10:45:12;;;;;;;8.18;2.38;;;22.30;92.60;;;;;;5031876;28;20467;-81
2023/09/24 10:47:40;;;;;;;4.13;2.05;;;21.70;93.00;;;;;;5032274;28;20104;-82
2023/09/24 10:50:16;;;;;;;3.83;2.30;;;21.20;93.80;;;;;;5032940;28;20084;-80
2023/09/24 10:53:02;;;;;;;6.97;2.80;;;21.00;94.20;;;;;;5031595;28;20049;-80
2023/09/24 10:55:30;;;;;;;2.45;2.20;;;20.60;93.80;;;;;;5032503;28;20045;-82
2023/09/24 10:58:09;;;;;;;3.08;2.17;;;20.40;94.50;;;;;;5032714;28;20075;-82
2023/09/24 11:00:35;;;;;;;4.30;2.83;;;20.30;95.10;;;;;;5032995;28;20053;-80
2023/09/24 11:03:02;;;;;;;5.70;3.17;;;20.20;94.60;;;;;;5032234;28;20050;-80
2023/09/24 11:05:29;;;;;;;7.40;2.90;;;19.90;94.40;;;;;;5032351;28;20081;-81
2023/09/24 11:07:56;;;;;;;2.20;1.75;;;19.80;94.90;;;;;;5031231;28;20049;-79
2023/09/24 11:10:26;;;;;;;5.03;2.53;;;19.70;95.30;;;;;;5032663;28;20083;-81
2023/09/24 11:12:53;;;;;;;5.75;2.50;;;19.70;95.20;;;;;;5033023;28;20041;-82
2023/09/24 11:15:21;;;;;;;3.30;2.30;;;19.60;95.30;;;;;;5032738;28;20042;-83
2023/09/24 11:17:48;;;;;;;3.30;2.70;;;19.60;95.70;;;;;;5032736;28;20056;-74
2023/09/24 11:20:17;;;;;;;6.25;2.33;;;19.60;96.10;;;;;;5032249;28;20053;-80
2023/09/24 11:22:43;;;;;;;3.85;2.30;;;19.50;95.70;;;;;;5032628;28;20053;-82
2023/09/24 11:25:11;;;;;;;7.30;3.10;;;19.40;95.60;;;;;;5032042;28;20467;-83
2023/09/24 11:27:47;;;;;;;3.40;2.40;;;19.40;95.70;;;;;;5032269;28;20124;-80
2023/09/24 11:30:15;;;;;;;3.65;2.08;;;19.40;96.10;;;;;;5032753;28;20041;-82
2023/09/24 11:32:42;;;;;;;4.00;2.25;;;19.50;96.40;;;;;;5031179;28;20113;-80
2023/09/24 11:35:11;;;;;;;2.88;2.20;;;19.40;95.80;;;;;;5032409;28;20080;-84
2023/09/24 11:37:49;;;;;;;4.28;2.60;;;19.50;95.90;;;;;;5032083;28;20041;-82
2023/09/24 11:40:30;;;;;;;2.20;1.90;;;19.60;96.00;;;;;;5032041;28;20053;-83
2023/09/24 11:43:03;;;;;;;2.97;1.90;;;19.70;95.60;;;;;;5031895;28;20076;-80
2023/09/24 11:45:42;;;;;;;5.75;2.15;;;19.80;95.20;;;;;;5031911;28;20037;-81
2023/09/24 11:48:10;;;;;;;6.85;2.10;;;19.80;95.40;;;;;;5032204;28;20355;-82
2023/09/24 11:50:37;;;;;;;2.65;2.08;;;19.90;95.70;;;;;;5031792;28;20061;-80
2023/09/24 11:53:03;;;;;;;3.63;1.95;;;19.80;95.70;;;;;;5031738;28;20462;-81
2023/09/24 11:55:29;;;;;;;3.67;2.20;;;19.80;95.50;;;;;;5031868;28;20044;-80
2023/09/24 11:57:55;;;;;;;2.60;1.63;;;19.80;95.60;;;;;;5034978;28;20049;-83
2023/09/24 12:00:21;;;;;;;3.22;2.08;;;19.70;95.40;;;;;;5035970;28;20053;-81
2023/09/24 12:02:47;;;;;;;3.10;1.88;;;19.70;95.10;;;;;;5035708;28;20593;-81
2023/09/24 12:05:12;;;;;;;4.38;1.95;;;19.70;94.90;;;;;;5034974;28;20049;-81
2023/09/24 12:07:38;;;;;;;2.05;1.60;;;19.60;95.40;;;;;;5035817;28;20503;-81
2023/09/24 12:10:04;;;;;;;3.90;1.70;;;19.60;95.70;;;;;;5034721;28;20053;-82
2023/09/24 12:12:30;;;;;;;2.70;1.90;;;19.60;95.90;;;;;;5035476;28;20048;-79
2023/09/24 12:14:56;;;;;;;2.58;1.58;;;19.60;95.70;;;;;;5035691;28;20045;-81
2023/09/24 12:17:21;;;;;;;3.67;2.00;;;19.70;94.60;;;;;;5035366;28;20466;-82
2023/09/24 12:19:49;;;;;;;3.22;1.90;;;19.60;95.20;;;;;;5035439;28;20084;-82
2023/09/24 12:22:16;;;;;;;4.28;2.17;;;19.70;95.40;;;;;;5034923;28;20129;-82
2023/09/24 12:24:42;;;;;;;3.53;1.80;;;19.70;94.60;;;;;;5034897;28;20034;-80
2023/09/24 12:27:08;;;;;;;3.83;1.80;;;19.80;94.90;;;;;;5034917;28;20068;-82
2023/09/24 12:29:34;;;;;;;2.78;1.67;;;19.80;94.00;;;;;;5035245;28;20045;-82
2023/09/24 12:31:59;;;;;;;4.10;1.67;;;19.90;94.90;;;;;;5034723;28;20512;-79
2023/09/24 12:34:25;;;;;;;2.55;1.70;;;19.90;94.80;;;;;;5034960;28;20115;-82
2023/09/24 12:36:51;;;;;;;3.25;1.80;;;19.90;94.90;;;;;;5034763;28;20390;-80
2023/09/24 12:39:20;;;;;;;3.13;1.70;;;20.00;95.10;;;;;;5034904;28;20128;-81
2023/09/24 12:41:49;;;;;;;2.35;2.10;;;20.10;95.30;;;;;;5035036;28;20045;-82
2023/09/24 12:44:15;;;;;;;3.67;1.95;;;20.20;95.00;;;;;;5034494;28;20519;-81
2023/09/24 12:46:41;;;;;;;4.72;2.00;;;20.20;95.20;;;;;;5033329;28;20420;-83
2023/09/24 12:49:07;;;;;;;2.13;1.65;;;20.30;95.70;;;;;;5034526;28;20098;-80